createdAt,value
2023-01-06T00:00:26.756Z,97260.09
2023-01-06T00:01:29.062Z,97263.88
2023-01-06T00:02:30.622Z,97266.56
2023-01-06T00:03:32.418Z,97260.03
2023-01-06T00:04:34.043Z,97254.50
2023-01-06T00:05:35.894Z,97260.03
2023-01-06T00:06:37.477Z,97261.13
2023-01-06T00:07:39.370Z,97262.97
2023-01-06T00:08:40.897Z,97268.25
2023-01-06T00:09:42.451Z,97269.28
2023-01-06T00:10:43.973Z,97269.28
2023-01-06T00:11:45.561Z,97276.16
2023-01-06T00:12:48.775Z,97273.22
2023-01-06T00:13:50.452Z,97269.19
2023-01-06T00:14:52.446Z,97271.50
2023-01-06T00:15:55.530Z,97274.88
2023-01-06T00:16:57.169Z,97282.25
2023-01-06T00:17:58.683Z,97282.78
2023-01-06T00:19:00.527Z,97282.16
2023-01-06T00:20:02.687Z,97293.84
2023-01-06T00:21:05.027Z,97289.28
2023-01-06T00:22:06.537Z,97282.13
2023-01-06T00:23:08.063Z,97292.22
2023-01-06T00:24:09.925Z,97285.28
2023-01-06T00:25:11.557Z,97289.00
2023-01-06T00:26:13.134Z,97290.84
2023-01-06T00:27:14.842Z,97291.72
2023-01-06T00:28:16.509Z,97293.53
2023-01-06T00:29:18.059Z,97291.72
2023-01-06T00:30:19.607Z,97289.81
2023-01-06T00:31:21.325Z,97297.22
2023-01-06T00:32:23.020Z,97291.06
2023-01-06T00:33:24.672Z,97291.03
2023-01-06T00:34:26.382Z,97287.84
2023-01-06T00:35:27.915Z,97289.97
2023-01-06T00:36:29.550Z,97298.38
2023-01-06T00:37:31.211Z,97296.47
2023-01-06T00:38:32.896Z,97297.50
2023-01-06T00:39:34.452Z,97305.41
2023-01-06T00:40:37.192Z,97301.91
2023-01-06T00:41:57.939Z,97301.88
2023-01-06T00:42:59.550Z,97308.22
2023-01-06T00:44:02.211Z,97309.31
2023-01-06T00:45:04.109Z,97311.91
2023-01-06T00:46:05.672Z,97307.66
2023-01-06T00:47:10.232Z,97314.88
2023-01-06T00:48:11.860Z,97307.13
2023-01-06T00:49:13.353Z,97309.25
2023-01-06T00:50:14.919Z,97316.91
2023-01-06T00:51:16.521Z,97308.63
2023-01-06T00:52:18.080Z,97311.59
2023-01-06T00:53:19.657Z,97317.00
2023-01-06T00:54:21.643Z,97321.81
2023-01-06T00:55:23.310Z,97323.75
2023-01-06T00:56:24.997Z,97326.22
2023-01-06T00:57:26.626Z,97328.88
2023-01-06T00:58:31.713Z,97332.41
2023-01-06T00:59:33.845Z,97329.03
2023-01-06T01:00:35.612Z,97330.44
2023-01-06T01:01:37.988Z,97333.22
2023-01-06T01:02:39.751Z,97339.66
2023-01-06T01:03:41.406Z,97343.13
2023-01-06T01:04:42.976Z,97343.41
2023-01-06T01:05:44.504Z,97344.53
2023-01-06T01:06:47.431Z,97344.53
2023-01-06T01:07:48.989Z,97340.84
2023-01-06T01:08:55.598Z,97344.00
2023-01-06T01:09:57.160Z,97342.41
2023-01-06T01:11:07.724Z,97336.59
2023-01-06T01:12:11.727Z,97340.31
2023-01-06T01:13:13.290Z,97339.72
2023-01-06T01:14:17.442Z,97336.56
2023-01-06T01:15:18.944Z,97339.94
2023-01-06T01:16:20.462Z,97341.00
2023-01-06T01:17:31.368Z,97344.44
2023-01-06T01:18:33.739Z,97335.66
2023-01-06T01:19:35.896Z,97333.81
2023-01-06T01:20:37.529Z,97338.81
2023-01-06T01:21:39.765Z,97332.69
2023-01-06T01:22:41.263Z,97328.00
2023-01-06T01:23:42.795Z,97337.56
2023-01-06T01:24:44.329Z,97332.28
2023-01-06T01:25:45.948Z,97331.06
2023-01-06T01:26:47.617Z,97330.63
2023-01-06T01:27:49.117Z,97328.28
2023-01-06T01:28:50.669Z,97330.63
2023-01-06T01:29:52.183Z,97324.56
2023-01-06T01:31:00.121Z,97325.06
2023-01-06T01:32:01.912Z,97328.75
2023-01-06T01:33:03.561Z,97324.53
2023-01-06T01:34:05.386Z,97331.41
2023-01-06T01:35:07.136Z,97339.91
2023-01-06T01:36:10.777Z,97329.53
2023-01-06T01:37:12.389Z,97331.69
2023-01-06T01:38:13.927Z,97327.72
2023-01-06T01:39:17.231Z,97330.91
2023-01-06T01:40:18.794Z,97335.16
2023-01-06T01:41:22.796Z,97345.19
2023-01-06T01:42:24.359Z,97340.41
2023-01-06T01:43:25.941Z,97347.53
2023-01-06T01:44:52.050Z,97352.53
2023-01-06T01:45:55.897Z,97347.53
2023-01-06T01:46:57.755Z,97341.47
2023-01-06T01:48:07.475Z,97342.53
2023-01-06T01:49:18.149Z,97347.28
2023-01-06T01:50:53.722Z,97347.28
2023-01-06T01:51:57.269Z,97343.88
2023-01-06T01:53:06.145Z,97340.72
2023-01-06T01:54:11.256Z,97346.78
2023-01-06T01:55:14.433Z,97341.19
2023-01-06T01:56:21.236Z,97340.16
2023-01-06T01:57:28.063Z,97341.50
2023-01-06T01:58:48.963Z,97343.31
2023-01-06T01:59:51.535Z,97342.50
2023-01-06T02:00:53.311Z,97346.19
2023-01-06T02:01:55.609Z,97339.00
2023-01-06T02:02:58.390Z,97333.44
2023-01-06T02:04:02.081Z,97332.09
2023-01-06T02:05:04.103Z,97339.22
2023-01-06T02:06:14.241Z,97336.56
2023-01-06T02:07:15.769Z,97343.94
2023-01-06T02:08:35.270Z,97344.91
2023-01-06T02:09:51.867Z,97329.75
2023-01-06T02:10:53.459Z,97344.81
2023-01-06T02:11:56.803Z,97341.59
2023-01-06T02:12:59.813Z,97346.88
2023-01-06T02:14:11.239Z,97346.28
2023-01-06T02:15:26.682Z,97344.66
2023-01-06T02:16:43.457Z,97337.78
2023-01-06T02:17:54.074Z,97345.25
2023-01-06T02:19:07.717Z,97352.38
2023-01-06T02:20:18.429Z,97351.53
2023-01-06T02:21:35.804Z,97353.09
2023-01-06T02:23:02.188Z,97346.69
2023-01-06T02:24:44.412Z,97346.66
2023-01-06T02:26:21.287Z,97338.63
2023-01-06T02:27:57.366Z,97344.78
2023-01-06T02:29:14.163Z,97347.69
2023-01-06T02:30:43.251Z,97342.94
2023-01-06T02:32:16.726Z,97339.31
2023-01-06T02:33:42.794Z,97345.75
2023-01-06T02:34:47.288Z,97342.56
2023-01-06T02:36:24.966Z,97348.09
2023-01-06T02:37:47.889Z,97343.03
2023-01-06T02:38:56.601Z,97345.41
2023-01-06T02:40:01.129Z,97341.91
2023-01-06T02:41:25.602Z,97343.75
2023-01-06T02:42:31.000Z,97341.34
2023-01-06T02:43:44.140Z,97338.94
2023-01-06T02:44:57.269Z,97330.13
2023-01-06T02:46:07.665Z,97339.72
2023-01-06T02:47:19.498Z,97340.25
2023-01-06T02:48:33.744Z,97346.06
2023-01-06T02:50:19.692Z,97348.94
2023-01-06T02:51:43.343Z,97358.88
2023-01-06T02:53:17.053Z,97353.91
2023-01-06T02:54:42.423Z,97350.84
2023-01-06T02:55:47.828Z,97341.09
2023-01-06T02:56:55.749Z,97342.41
2023-01-06T02:58:26.619Z,97333.16
2023-01-06T02:59:36.307Z,97333.69
2023-01-06T03:00:46.290Z,97335.03
2023-01-06T03:01:52.854Z,97330.22
2023-01-06T03:03:10.294Z,97335.53
2023-01-06T03:04:20.936Z,97334.50
2023-01-06T03:05:24.700Z,97339.25
2023-01-06T03:06:29.852Z,97331.63
2023-01-06T03:07:32.921Z,97334.50
2023-01-06T03:08:36.242Z,97335.28
2023-01-06T03:09:38.738Z,97338.44
2023-01-06T03:10:43.168Z,97334.94
2023-01-06T03:11:50.185Z,97330.09
2023-01-06T03:12:56.542Z,97333.22
2023-01-06T03:14:10.197Z,97324.69
2023-01-06T03:15:12.101Z,97322.53
2023-01-06T03:16:14.363Z,97324.88
2023-01-06T03:17:15.963Z,97321.41
2023-01-06T03:18:17.928Z,97327.97
2023-01-06T03:19:19.520Z,97325.06
2023-01-06T03:20:21.247Z,97326.16
2023-01-06T03:21:26.980Z,97328.78
2023-01-06T03:22:28.721Z,97329.25
2023-01-06T03:23:30.363Z,97331.88
2023-01-06T03:24:32.095Z,97332.91
2023-01-06T03:25:33.622Z,97332.88
2023-01-06T03:26:36.543Z,97338.69
2023-01-06T03:27:38.065Z,97333.94
2023-01-06T03:28:39.762Z,97331.38
2023-01-06T03:29:41.491Z,97340.97
2023-01-06T03:31:30.428Z,97337.19
2023-01-06T03:32:40.177Z,97338.22
2023-01-06T03:34:09.167Z,97339.78
2023-01-06T03:35:37.540Z,97335.59
2023-01-06T03:37:00.670Z,97347.22
2023-01-06T03:38:25.536Z,97340.81
2023-01-06T03:39:39.102Z,97331.22
2023-01-06T03:40:44.216Z,97338.78
2023-01-06T03:42:27.445Z,97342.56
2023-01-06T03:43:47.002Z,97346.22
2023-01-06T03:45:23.772Z,97343.63
2023-01-06T03:46:38.564Z,97338.28
2023-01-06T03:47:56.816Z,97332.94
2023-01-06T03:49:07.997Z,97328.13
2023-01-06T03:50:25.822Z,97326.72
2023-01-06T03:51:31.124Z,97325.88
2023-01-06T03:52:39.614Z,97326.63
2023-01-06T03:53:56.409Z,97328.22
2023-01-06T03:55:05.417Z,97331.09
2023-01-06T03:56:19.239Z,97338.31
2023-01-06T03:57:53.187Z,97335.34
2023-01-06T03:58:58.852Z,97333.53
2023-01-06T04:00:26.450Z,97335.44
2023-01-06T04:01:29.719Z,97337.28
2023-01-06T04:02:31.923Z,97338.63
2023-01-06T04:03:34.413Z,97340.22
2023-01-06T04:04:37.129Z,97332.25
2023-01-06T04:05:38.732Z,97329.06
2023-01-06T04:06:40.317Z,97324.28
2023-01-06T04:07:43.799Z,97322.81
2023-01-06T04:08:45.410Z,97315.72
2023-01-06T04:09:46.962Z,97321.88
2023-01-06T04:10:48.557Z,97312.84
2023-01-06T04:12:08.667Z,97317.09
2023-01-06T04:13:10.248Z,97313.41
2023-01-06T04:14:11.963Z,97318.78
2023-01-06T04:15:16.576Z,97303.59
2023-01-06T04:16:18.153Z,97318.03
2023-01-06T04:17:19.791Z,97323.63
2023-01-06T04:18:21.327Z,97337.88
2023-01-06T04:19:22.833Z,97338.13
2023-01-06T04:20:28.025Z,97339.19
2023-01-06T04:21:29.601Z,97335.28
2023-01-06T04:22:31.239Z,97345.59
2023-01-06T04:23:33.093Z,97342.66
2023-01-06T04:24:34.658Z,97347.16
2023-01-06T04:25:36.775Z,97346.63
2023-01-06T04:26:38.332Z,97345.56
2023-01-06T04:27:39.996Z,97352.97
2023-01-06T04:28:41.576Z,97350.59
2023-01-06T04:29:43.239Z,97359.06
2023-01-06T04:30:44.818Z,97355.88
2023-01-06T04:31:46.361Z,97372.56
2023-01-06T04:32:48.012Z,97370.19
2023-01-06T04:33:49.504Z,97383.72
2023-01-06T04:34:51.368Z,97384.28
2023-01-06T04:35:53.976Z,97374.81
2023-01-06T04:36:57.211Z,97370.56
2023-01-06T04:38:02.231Z,97371.66
2023-01-06T04:39:04.063Z,97368.22
2023-01-06T04:40:07.754Z,97370.09
2023-01-06T04:41:09.343Z,97366.13
2023-01-06T04:42:10.968Z,97367.44
2023-01-06T04:43:18.938Z,97371.69
2023-01-06T04:44:21.026Z,97374.84
2023-01-06T04:45:22.944Z,97378.56
2023-01-06T04:46:24.546Z,97376.44
2023-01-06T04:47:26.103Z,97382.25
2023-01-06T04:48:27.677Z,97383.84
2023-01-06T04:49:29.268Z,97394.94
2023-01-06T04:50:30.823Z,97388.59
2023-01-06T04:51:32.368Z,97397.59
2023-01-06T04:52:33.945Z,97391.00
2023-01-06T04:53:37.565Z,97392.31
2023-01-06T04:54:39.085Z,97389.13
2023-01-06T04:55:41.929Z,97387.00
2023-01-06T04:56:43.525Z,97397.06
2023-01-06T04:57:45.141Z,97402.63
2023-01-06T04:58:46.771Z,97399.72
2023-01-06T04:59:48.299Z,97392.59
2023-01-06T05:00:49.858Z,97397.59
2023-01-06T05:01:51.633Z,97403.41
2023-01-06T05:02:53.265Z,97409.75
2023-01-06T05:03:55.028Z,97403.44
2023-01-06T05:04:56.730Z,97407.66
2023-01-06T05:06:09.833Z,97399.19
2023-01-06T05:07:11.397Z,97400.78
2023-01-06T05:08:12.929Z,97401.81
2023-01-06T05:09:14.494Z,97404.22
2023-01-06T05:10:16.121Z,97398.69
2023-01-06T05:11:20.724Z,97409.75
2023-01-06T05:12:22.531Z,97409.75
2023-01-06T05:13:24.079Z,97405.50
2023-01-06T05:14:25.607Z,97411.59
2023-01-06T05:15:27.177Z,97415.59
2023-01-06T05:16:33.857Z,97410.53
2023-01-06T05:17:35.448Z,97412.81
2023-01-06T05:18:37.141Z,97406.50
2023-01-06T05:19:38.705Z,97410.22
2023-01-06T05:20:40.271Z,97411.00
2023-01-06T05:21:41.803Z,97408.09
2023-01-06T05:22:43.451Z,97402.78
2023-01-06T05:23:46.040Z,97403.28
2023-01-06T05:24:47.700Z,97406.97
2023-01-06T05:25:52.586Z,97401.72
2023-01-06T05:26:55.052Z,97408.13
2023-01-06T05:27:56.619Z,97401.81
2023-01-06T05:28:58.202Z,97412.66
2023-01-06T05:29:59.770Z,97423.25
2023-01-06T05:31:02.721Z,97429.31
2023-01-06T05:32:05.911Z,97425.06
2023-01-06T05:33:07.630Z,97431.44
2023-01-06T05:34:11.194Z,97424.00
2023-01-06T05:35:12.827Z,97417.13
2023-01-06T05:36:16.790Z,97418.50
2023-01-06T05:37:18.388Z,97411.88
2023-01-06T05:38:20.079Z,97410.81
2023-01-06T05:39:21.668Z,97413.47
2023-01-06T05:40:23.923Z,97401.84
2023-01-06T05:41:25.452Z,97395.50
2023-01-06T05:42:27.005Z,97398.66
2023-01-06T05:43:29.410Z,97413.22
2023-01-06T05:44:31.620Z,97425.38
2023-01-06T05:45:33.223Z,97425.91
2023-01-06T05:46:34.926Z,97423.53
2023-01-06T05:47:36.553Z,97424.59
2023-01-06T05:48:39.256Z,97424.59
2023-01-06T05:49:40.872Z,97425.09
2023-01-06T05:50:42.624Z,97420.59
2023-01-06T05:51:44.158Z,97421.66
2023-01-06T05:52:45.699Z,97418.75
2023-01-06T05:53:48.725Z,97420.09
2023-01-06T05:54:50.268Z,97417.44
2023-01-06T05:55:51.825Z,97418.75
2023-01-06T05:56:53.367Z,97426.69
2023-01-06T05:57:54.876Z,97427.25
2023-01-06T05:58:56.436Z,97428.03
2023-01-06T05:59:57.997Z,97433.31
2023-01-06T06:01:04.122Z,97446.81
2023-01-06T06:02:05.850Z,97451.03
2023-01-06T06:03:07.406Z,97453.94
2023-01-06T06:04:09.051Z,97452.63
2023-01-06T06:05:10.995Z,97460.59
2023-01-06T06:06:12.553Z,97455.28
2023-01-06T06:07:14.134Z,97453.69
2023-01-06T06:08:16.107Z,97455.31
2023-01-06T06:09:17.670Z,97455.81
2023-01-06T06:10:19.194Z,97448.16
2023-01-06T06:11:22.348Z,97448.41
2023-01-06T06:12:24.002Z,97450.00
2023-01-06T06:13:25.572Z,97441.00
2023-01-06T06:14:27.306Z,97441.53
2023-01-06T06:15:28.858Z,97444.16
2023-01-06T06:16:30.533Z,97450.00
2023-01-06T06:17:32.106Z,97443.66
2023-01-06T06:18:34.076Z,97442.53
2023-01-06T06:19:35.571Z,97445.19
2023-01-06T06:20:37.140Z,97446.72
2023-01-06T06:21:39.199Z,97438.50
2023-01-06T06:22:40.705Z,97437.69
2023-01-06T06:23:43.176Z,97438.22
2023-01-06T06:24:44.957Z,97437.69
2023-01-06T06:25:50.261Z,97441.94
2023-01-06T06:26:51.917Z,97454.13
2023-01-06T06:27:57.479Z,97459.41
2023-01-06T06:28:59.037Z,97470.00
2023-01-06T06:30:00.603Z,97471.63
2023-01-06T06:31:06.671Z,97463.69
2023-01-06T06:32:08.267Z,97466.66
2023-01-06T06:33:09.791Z,97474.34
2023-01-06T06:34:13.123Z,97474.63
2023-01-06T06:35:14.784Z,97466.94
2023-01-06T06:36:16.489Z,97469.81
2023-01-06T06:37:18.088Z,97479.59
2023-01-06T06:38:19.648Z,97467.19
2023-01-06T06:39:22.107Z,97471.69
2023-01-06T06:40:23.827Z,97461.63
2023-01-06T06:41:25.889Z,97464.50
2023-01-06T06:42:27.453Z,97467.97
2023-01-06T06:43:29.292Z,97467.97
2023-01-06T06:44:30.815Z,97473.53
2023-01-06T06:45:32.397Z,97472.22
2023-01-06T06:46:33.939Z,97476.97
2023-01-06T06:47:35.561Z,97472.22
2023-01-06T06:48:37.542Z,97484.16
2023-01-06T06:49:39.125Z,97475.38
2023-01-06T06:50:40.660Z,97476.25
2023-01-06T06:51:42.279Z,97482.28
2023-01-06T06:52:43.869Z,97471.22
2023-01-06T06:53:45.991Z,97460.06
2023-01-06T06:54:47.482Z,97457.84
2023-01-06T06:55:49.015Z,97458.56
2023-01-06T06:56:50.591Z,97455.06
2023-01-06T06:57:52.113Z,97456.34
2023-01-06T06:58:53.699Z,97462.91
2023-01-06T06:59:57.840Z,97464.72
2023-01-06T07:01:04.284Z,97474.09
2023-01-06T07:02:06.477Z,97471.03
2023-01-06T07:03:08.073Z,97481.81
2023-01-06T07:04:09.696Z,97472.94
2023-01-06T07:05:11.224Z,97478.81
2023-01-06T07:06:16.730Z,97477.63
2023-01-06T07:07:18.343Z,97478.72
2023-01-06T07:08:20.262Z,97477.41
2023-01-06T07:09:21.792Z,97479.25
2023-01-06T07:10:23.301Z,97476.28
2023-01-06T07:11:24.831Z,97470.34
2023-01-06T07:12:26.339Z,97476.84
2023-01-06T07:13:28.324Z,97477.50
2023-01-06T07:14:29.895Z,97478.41
2023-01-06T07:15:31.565Z,97478.59
2023-01-06T07:16:33.114Z,97475.03
2023-01-06T07:17:34.714Z,97476.47
2023-01-06T07:18:36.981Z,97475.53
2023-01-06T07:19:38.496Z,97479.00
2023-01-06T07:20:40.089Z,97488.44
2023-01-06T07:21:41.779Z,97496.22
2023-01-06T07:22:43.308Z,97492.44
2023-01-06T07:23:44.827Z,97492.34
2023-01-06T07:24:46.488Z,97490.75
2023-01-06T07:26:01.590Z,97485.16
2023-01-06T07:27:03.170Z,97487.25
2023-01-06T07:28:05.646Z,97485.91
2023-01-06T07:29:07.209Z,97488.38
2023-01-06T07:30:09.240Z,97486.63
2023-01-06T07:31:10.985Z,97491.97
2023-01-06T07:32:12.568Z,97483.00
2023-01-06T07:33:14.199Z,97487.50
2023-01-06T07:34:15.754Z,97482.72
2023-01-06T07:35:18.018Z,97486.63
2023-01-06T07:36:19.541Z,97484.66
2023-01-06T07:37:21.073Z,97479.91
2023-01-06T07:38:23.511Z,97473.81
2023-01-06T07:39:25.094Z,97483.38
2023-01-06T07:40:26.605Z,97490.94
2023-01-06T07:41:28.113Z,97486.16
2023-01-06T07:42:29.641Z,97488.34
2023-01-06T07:43:31.196Z,97492.44
2023-01-06T07:44:32.802Z,97492.66
2023-01-06T07:45:35.122Z,97489.16
2023-01-06T07:46:36.689Z,97489.41
2023-01-06T07:47:38.281Z,97486.19
2023-01-06T07:48:39.850Z,97484.03
2023-01-06T07:49:41.432Z,97491.94
2023-01-06T07:50:43.005Z,97491.09
2023-01-06T07:51:44.575Z,97493.69
2023-01-06T07:52:46.201Z,97492.38
2023-01-06T07:53:47.754Z,97489.44
2023-01-06T07:54:49.303Z,97489.66
2023-01-06T07:55:52.652Z,97486.31
2023-01-06T07:56:54.224Z,97493.44
2023-01-06T07:57:55.772Z,97489.97
2023-01-06T07:58:57.734Z,97491.50
2023-01-06T07:59:59.321Z,97499.41
2023-01-06T08:01:05.948Z,97487.69
2023-01-06T08:02:07.634Z,97489.41
2023-01-06T08:03:11.631Z,97492.13
2023-01-06T08:04:13.270Z,97498.34
2023-01-06T08:05:14.849Z,97496.84
2023-01-06T08:06:16.401Z,97500.31
2023-01-06T08:07:18.239Z,97494.09
2023-01-06T08:08:19.807Z,97493.91
2023-01-06T08:09:21.351Z,97487.81
2023-01-06T08:10:22.900Z,97487.91
2023-01-06T08:11:24.553Z,97491.84
2023-01-06T08:12:26.067Z,97494.16
2023-01-06T08:13:27.604Z,97493.31
2023-01-06T08:14:29.173Z,97495.59
2023-01-06T08:15:30.778Z,97495.59
2023-01-06T08:16:32.286Z,97500.25
2023-01-06T08:17:33.821Z,97497.94
2023-01-06T08:18:36.158Z,97502.25
2023-01-06T08:19:37.742Z,97511.50
2023-01-06T08:20:39.366Z,97505.19
2023-01-06T08:21:40.878Z,97509.00
2023-01-06T08:22:42.454Z,97509.63
2023-01-06T08:23:43.998Z,97504.28
2023-01-06T08:24:45.585Z,97503.06
2023-01-06T08:25:47.122Z,97514.28
2023-01-06T08:26:48.620Z,97513.66
2023-01-06T08:27:50.227Z,97508.50
2023-01-06T08:28:53.565Z,97508.03
2023-01-06T08:29:55.471Z,97516.06
2023-01-06T08:30:57.520Z,97509.16
2023-01-06T08:32:09.806Z,97514.53
2023-01-06T08:33:13.388Z,97514.81
2023-01-06T08:34:15.089Z,97520.91
2023-01-06T08:35:16.956Z,97519.28
2023-01-06T08:36:20.743Z,97522.13
2023-01-06T08:37:22.286Z,97522.38
2023-01-06T08:38:23.849Z,97528.22
2023-01-06T08:39:25.389Z,97521.28
2023-01-06T08:40:26.910Z,97523.97
2023-01-06T08:41:28.560Z,97522.63
2023-01-06T08:42:30.104Z,97522.50
2023-01-06T08:43:31.742Z,97521.28
2023-01-06T08:44:33.309Z,97511.22
2023-01-06T08:45:39.427Z,97512.63
2023-01-06T08:46:41.089Z,97520.59
2023-01-06T08:47:42.696Z,97518.59
2023-01-06T08:48:44.903Z,97522.56
2023-01-06T08:49:46.557Z,97515.84
2023-01-06T08:50:48.162Z,97509.28
2023-01-06T08:51:49.792Z,97515.94
2023-01-06T08:52:52.115Z,97515.81
2023-01-06T08:53:54.417Z,97516.19
2023-01-06T08:54:55.997Z,97517.00
2023-01-06T08:55:57.588Z,97516.38
2023-01-06T08:56:59.181Z,97521.63
2023-01-06T08:58:00.729Z,97510.00
2023-01-06T08:59:03.851Z,97515.38
2023-01-06T09:00:06.618Z,97510.00
2023-01-06T09:01:16.236Z,97513.50
2023-01-06T09:02:17.869Z,97514.75
2023-01-06T09:03:19.585Z,97508.91
2023-01-06T09:04:21.212Z,97513.31
2023-01-06T09:05:22.779Z,97514.09
2023-01-06T09:06:25.020Z,97511.41
2023-01-06T09:07:26.619Z,97516.94
2023-01-06T09:08:28.169Z,97516.13
2023-01-06T09:09:29.758Z,97509.19
2023-01-06T09:10:31.332Z,97511.09
2023-01-06T09:11:33.179Z,97512.34
2023-01-06T09:12:34.854Z,97510.25
2023-01-06T09:13:37.326Z,97497.16
2023-01-06T09:14:38.951Z,97509.31
2023-01-06T09:15:41.711Z,97504.03
2023-01-06T09:16:43.395Z,97498.66
2023-01-06T09:17:44.938Z,97496.72
2023-01-06T09:18:50.395Z,97496.72
2023-01-06T09:19:51.965Z,97501.63
2023-01-06T09:20:53.461Z,97500.47
2023-01-06T09:21:54.986Z,97498.56
2023-01-06T09:22:56.526Z,97503.59
2023-01-06T09:23:58.101Z,97502.44
2023-01-06T09:24:59.744Z,97501.09
2023-01-06T09:26:01.302Z,97499.63
2023-01-06T09:27:02.879Z,97499.13
2023-01-06T09:28:04.492Z,97505.34
2023-01-06T09:29:06.216Z,97504.78
2023-01-06T09:30:08.393Z,97496.88
2023-01-06T09:31:10.109Z,97504.41
2023-01-06T09:32:11.672Z,97502.47
2023-01-06T09:33:13.197Z,97504.31
2023-01-06T09:34:14.941Z,97509.63
2023-01-06T09:35:16.555Z,97503.13
2023-01-06T09:36:18.118Z,97500.16
2023-01-06T09:37:19.627Z,97494.75
2023-01-06T09:38:21.245Z,97495.53
2023-01-06T09:39:22.891Z,97495.78
2023-01-06T09:40:48.727Z,97493.81
2023-01-06T09:42:14.062Z,97488.44
2023-01-06T09:43:34.020Z,97495.63
2023-01-06T09:44:50.283Z,97487.34
2023-01-06T09:45:55.858Z,97482.88
2023-01-06T09:47:00.339Z,97487.75
2023-01-06T09:48:04.067Z,97484.03
2023-01-06T09:49:32.348Z,97476.44
2023-01-06T09:50:53.255Z,97471.97
2023-01-06T09:51:59.805Z,97478.75
2023-01-06T09:53:09.951Z,97478.09
2023-01-06T09:54:23.106Z,97475.97
2023-01-06T09:55:36.356Z,97476.09
2023-01-06T09:56:41.657Z,97476.66
2023-01-06T09:57:58.989Z,97474.97
2023-01-06T09:59:11.455Z,97468.47
2023-01-06T10:00:50.358Z,97469.34
2023-01-06T10:01:52.319Z,97466.44
2023-01-06T10:02:54.076Z,97464.97
2023-01-06T10:03:57.504Z,97470.25
2023-01-06T10:04:59.180Z,97459.59
2023-01-06T10:06:06.849Z,97463.28
2023-01-06T10:07:25.368Z,97454.84
2023-01-06T10:09:00.337Z,97455.97
2023-01-06T10:10:23.052Z,97450.22
2023-01-06T10:11:27.305Z,97458.00
2023-01-06T10:12:47.336Z,97453.13
2023-01-06T10:14:13.973Z,97453.13
2023-01-06T10:15:18.038Z,97451.03
2023-01-06T10:16:28.479Z,97447.56
2023-01-06T10:17:36.257Z,97449.16
2023-01-06T10:18:48.916Z,97443.75
2023-01-06T10:20:23.269Z,97443.50
2023-01-06T10:21:40.531Z,97435.66
2023-01-06T10:23:14.630Z,97435.66
2023-01-06T10:24:34.834Z,97430.38
2023-01-06T10:25:57.609Z,97422.66
2023-01-06T10:27:14.689Z,97428.94
2023-01-06T10:28:19.362Z,97429.28
2023-01-06T10:29:21.870Z,97432.53
2023-01-06T10:30:30.809Z,97421.75
2023-01-06T10:31:39.584Z,97415.00
2023-01-06T10:32:42.927Z,97421.88
2023-01-06T10:33:52.598Z,97410.53
2023-01-06T10:34:55.752Z,97414.13
2023-01-06T10:35:59.169Z,97415.81
2023-01-06T10:37:09.897Z,97415.22
2023-01-06T10:38:13.605Z,97413.31
2023-01-06T10:39:21.531Z,97408.50
2023-01-06T10:40:29.398Z,97409.63
2023-01-06T10:41:39.328Z,97412.53
2023-01-06T10:42:55.613Z,97413.88
2023-01-06T10:43:57.768Z,97413.69
2023-01-06T10:44:59.351Z,97420.50
2023-01-06T10:46:00.897Z,97420.88
2023-01-06T10:47:02.499Z,97415.47
2023-01-06T10:48:06.896Z,97416.03
2023-01-06T10:49:15.466Z,97412.13
2023-01-06T10:50:18.993Z,97415.03
2023-01-06T10:51:35.033Z,97414.25
2023-01-06T10:52:37.199Z,97408.97
2023-01-06T10:53:38.749Z,97408.06
2023-01-06T10:54:42.255Z,97415.34
2023-01-06T10:55:53.075Z,97403.56
2023-01-06T10:57:04.527Z,97398.88
2023-01-06T10:58:21.430Z,97377.97
2023-01-06T10:59:23.002Z,97389.66
2023-01-06T11:00:25.924Z,97387.19
2023-01-06T11:01:33.951Z,97384.16
2023-01-06T11:02:36.449Z,97386.72
2023-01-06T11:03:42.795Z,97381.91
2023-01-06T11:04:51.888Z,97374.59
2023-01-06T11:06:28.046Z,97377.72
2023-01-06T11:07:30.467Z,97376.03
2023-01-06T11:08:33.267Z,97369.53
2023-01-06T11:09:39.742Z,97380.63
2023-01-06T11:10:51.936Z,97368.06
2023-01-06T11:11:55.885Z,97372.75
2023-01-06T11:13:00.456Z,97384.38
2023-01-06T11:14:05.559Z,97371.72
2023-01-06T11:15:08.674Z,97377.69
2023-01-06T11:16:27.560Z,97384.63
2023-01-06T11:17:30.040Z,97386.22
2023-01-06T11:18:34.074Z,97384.75
2023-01-06T11:19:41.412Z,97380.38
2023-01-06T11:20:43.549Z,97372.97
2023-01-06T11:21:49.503Z,97366.69
2023-01-06T11:22:51.301Z,97372.63
2023-01-06T11:24:15.544Z,97368.25
2023-01-06T11:25:20.065Z,97357.16
2023-01-06T11:26:23.666Z,97363.84
2023-01-06T11:27:25.410Z,97351.41
2023-01-06T11:28:27.015Z,97361.75
2023-01-06T11:29:33.779Z,97361.75
2023-01-06T11:30:48.917Z,97343.53
2023-01-06T11:31:50.989Z,97345.00
2023-01-06T11:32:53.449Z,97341.66
2023-01-06T11:33:59.371Z,97345.59
2023-01-06T11:35:03.698Z,97337.06
2023-01-06T11:36:13.736Z,97341.09
2023-01-06T11:37:15.302Z,97344.22
2023-01-06T11:38:20.125Z,97335.72
2023-01-06T11:39:27.867Z,97344.22
2023-01-06T11:40:32.609Z,97351.88
2023-01-06T11:41:40.214Z,97351.63
2023-01-06T11:43:51.647Z,97343.31
2023-01-06T11:44:53.851Z,97354.06
2023-01-06T11:46:07.976Z,97360.53
2023-01-06T11:47:16.834Z,97363.22
2023-01-06T11:48:34.576Z,97362.03
2023-01-06T11:49:59.047Z,97356.56
2023-01-06T11:51:03.880Z,97353.31
2023-01-06T11:52:18.902Z,97362.84
2023-01-06T11:53:21.569Z,97352.09
2023-01-06T11:54:33.734Z,97359.59
2023-01-06T11:55:35.309Z,97346.72
2023-01-06T11:56:37.489Z,97350.75
2023-01-06T11:57:44.476Z,97349.88
2023-01-06T11:58:51.991Z,97348.28
2023-01-06T12:00:16.954Z,97339.19
2023-01-06T12:01:54.001Z,97344.81
2023-01-06T12:03:10.577Z,97345.84
2023-01-06T12:04:19.620Z,97350.75
2023-01-06T12:05:35.115Z,97352.78
2023-01-06T12:06:45.262Z,97353.56
2023-01-06T12:07:52.876Z,97347.84
2023-01-06T12:09:06.570Z,97355.69
2023-01-06T12:10:20.279Z,97347.47
2023-01-06T12:11:45.586Z,97351.56
2023-01-06T12:12:48.483Z,97350.66
2023-01-06T12:14:10.660Z,97344.34
2023-01-06T12:15:14.876Z,97354.34
2023-01-06T12:16:28.998Z,97357.69
2023-01-06T12:17:40.734Z,97350.19
2023-01-06T12:18:42.997Z,97354.47
2023-01-06T12:19:53.683Z,97351.19
2023-01-06T12:20:56.836Z,97352.63
2023-01-06T12:21:59.424Z,97358.47
2023-01-06T12:23:24.730Z,97360.91
2023-01-06T12:24:27.170Z,97349.91
2023-01-06T12:25:58.370Z,97347.63
2023-01-06T12:27:04.953Z,97352.53
2023-01-06T12:28:19.872Z,97355.56
2023-01-06T12:29:22.267Z,97345.47
2023-01-06T12:30:23.734Z,97352.88
2023-01-06T12:31:36.617Z,97350.16
2023-01-06T12:32:43.177Z,97345.34
2023-01-06T12:33:54.665Z,97350.56
2023-01-06T12:35:02.522Z,97343.66
2023-01-06T12:36:23.249Z,97346.34
2023-01-06T12:37:31.873Z,97347.31
2023-01-06T12:38:52.133Z,97344.84
2023-01-06T12:39:59.833Z,97346.97
2023-01-06T12:41:08.919Z,97348.63
2023-01-06T12:42:23.594Z,97346.25
2023-01-06T12:43:29.641Z,97347.72
2023-01-06T12:44:52.644Z,97348.47
2023-01-06T12:46:28.708Z,97355.19
2023-01-06T12:47:43.160Z,97352.34
2023-01-06T12:49:03.307Z,97354.41
2023-01-06T12:50:26.274Z,97355.03
2023-01-06T12:51:42.310Z,97352.16
2023-01-06T12:53:01.260Z,97360.69
2023-01-06T12:54:24.318Z,97348.47
2023-01-06T12:55:52.147Z,97352.63
2023-01-06T12:57:01.769Z,97350.00